Terminal Aerodrome Forecast
Issued by NWS Greer, SC

Home | Current Version | Previous Version | Text Only | Print | Product List | Glossary On
Versions: 1 2 3 4 5 6 7 8 9 10 11 12 13 14
000
FTUS42 KGSP 310537
TAFAVL
TAF
KAVL 310537Z 3106/0106 33003KT P6SM SCT210
     FM311800 34003KT P6SM SCT050 OVC080
     FM312100 35008KT P6SM VCSH OVC050
     FM010200 35009KT P6SM -SHRA OVC026
     FM010500 34012KT P6SM -SHSN BKN017=

USA.gov is the U.S. government's official web portal to all federal, state and local government web resources and services.